createdAt,value
2022-11-16T00:14:00.513Z,4.6
2022-11-16T00:29:03.406Z,4.36
2022-11-16T00:44:05.999Z,4.64
2022-11-16T00:59:08.398Z,4.5
2022-11-16T01:14:10.707Z,4.32
2022-11-16T01:29:13.348Z,4.39
2022-11-16T01:44:15.678Z,4.53
2022-11-16T01:59:18.249Z,4.2
2022-11-16T02:14:20.735Z,4.19
2022-11-16T02:29:23.301Z,3.98
2022-11-16T02:44:25.895Z,3.75
2022-11-16T02:59:28.506Z,3.89
2022-11-16T03:14:31.413Z,4.06
2022-11-16T03:29:33.763Z,4.14
2022-11-16T03:44:36.155Z,4.1
2022-11-16T03:59:38.609Z,3.83
2022-11-16T04:14:41.102Z,4.02
2022-11-16T04:29:43.586Z,4.04
2022-11-16T04:44:46.406Z,3.8
2022-11-16T04:59:49.169Z,3.47
2022-11-16T05:14:51.694Z,3.58
2022-11-16T05:29:54.547Z,3.94
2022-11-16T05:44:57.851Z,3.82
2022-11-16T06:00:00.718Z,4.06
2022-11-16T06:15:04.341Z,3.77
2022-11-16T06:30:09.565Z,4.11
2022-11-16T06:45:13.927Z,3.88
2022-11-16T07:00:20.837Z,3.78
2022-11-16T07:15:24.829Z,3.88
2022-11-16T07:30:29.019Z,3.72
2022-11-16T07:45:34.237Z,3.69
2022-11-16T08:00:36.793Z,4.19
2022-11-16T08:15:39.211Z,3.63
2022-11-16T08:30:41.542Z,3.81
2022-11-16T08:45:44.258Z,3.55
2022-11-16T09:00:46.732Z,3.45
2022-11-16T09:15:49.279Z,3.19
2022-11-16T09:30:52.100Z,3.44
2022-11-16T09:45:55.034Z,3.44
2022-11-16T10:00:57.437Z,3.47
2022-11-16T10:15:59.864Z,3.74
2022-11-16T10:31:02.156Z,3.52
2022-11-16T10:46:04.438Z,3.5
2022-11-16T11:01:06.793Z,3.27
2022-11-16T11:16:09.387Z,3.6
2022-11-16T11:31:11.774Z,3.5
2022-11-16T11:46:14.095Z,3.93
2022-11-16T12:01:20.749Z,3.81
2022-11-16T12:16:26.163Z,3.42
2022-11-16T12:31:28.619Z,4
2022-11-16T12:46:31.047Z,3.93
2022-11-16T13:01:33.353Z,3.67
2022-11-16T13:16:35.728Z,3.55
2022-11-16T13:31:37.997Z,3.44
2022-11-16T13:46:55.252Z,3.51
2022-11-16T14:01:58.795Z,3.56
2022-11-16T14:17:01.735Z,3.74
2022-11-16T14:32:04.256Z,3.37
2022-11-16T14:47:07.164Z,2.84
2022-11-16T15:02:09.676Z,2.56
2022-11-16T15:17:11.934Z,3.07
2022-11-16T15:32:14.231Z,3.28
2022-11-16T15:47:16.588Z,3.39
2022-11-16T16:02:19.020Z,3.48
2022-11-16T16:17:21.333Z,3.71
2022-11-16T16:32:23.616Z,3.8
2022-11-16T16:47:26.150Z,3.83
2022-11-16T17:02:28.577Z,3.74
2022-11-16T17:17:31.426Z,3.81
2022-11-16T17:32:34.302Z,3.87
2022-11-16T17:47:37.051Z,4
2022-11-16T18:02:40.064Z,3.79
2022-11-16T18:17:42.540Z,3.24
2022-11-16T18:32:44.866Z,3.42
2022-11-16T18:47:47.491Z,3.55
2022-11-16T19:02:50.651Z,3.97
2022-11-16T19:18:14.692Z,3.49
2022-11-16T19:33:22.859Z,3.79
2022-11-16T19:48:25.199Z,4.31
2022-11-16T20:03:27.540Z,4.15
2022-11-16T20:18:29.971Z,4.55
2022-11-16T20:33:32.812Z,4.84
2022-11-16T20:48:35.329Z,4.63
2022-11-16T21:03:38.046Z,4.73
2022-11-16T21:18:41.165Z,4.86
2022-11-16T21:33:43.443Z,5.13
2022-11-16T21:48:45.830Z,5.23
2022-11-16T22:03:49.013Z,4.98
2022-11-16T22:18:51.447Z,4.72
2022-11-16T22:33:53.771Z,4.51
2022-11-16T22:48:56.141Z,4.67
2022-11-16T23:03:58.445Z,4.56
2022-11-16T23:19:00.819Z,5.07
2022-11-16T23:34:03.253Z,5.24
2022-11-16T23:49:05.632Z,5.16
